createdAt,value
2018-05-17T00:00:54.587Z,101486.70
2018-05-17T00:03:28.710Z,101492.27
2018-05-17T00:05:59.224Z,101495.11
2018-05-17T00:08:29.571Z,101496.80
2018-05-17T00:11:01.316Z,101498.06
2018-05-17T00:13:31.736Z,101496.09
2018-05-17T00:16:04.894Z,101494.78
2018-05-17T00:18:35.720Z,101485.15
2018-05-17T00:21:06.110Z,101506.85
2018-05-17T00:23:40.134Z,101508.27
2018-05-17T00:26:14.026Z,101514.13
2018-05-17T00:28:44.781Z,101507.34
2018-05-17T00:31:20.769Z,101514.03
2018-05-17T00:33:51.066Z,101513.05
2018-05-17T00:36:22.190Z,101514.90
2018-05-17T00:38:52.575Z,101518.62
2018-05-17T00:41:23.552Z,101517.84
2018-05-17T00:43:54.269Z,101489.67
2018-05-17T00:46:25.494Z,101519.26
2018-05-17T00:48:56.093Z,101538.37
2018-05-17T00:51:26.424Z,101533.87
2018-05-17T00:53:57.327Z,101543.97
2018-05-17T00:56:27.943Z,101545.72
2018-05-17T00:58:58.173Z,101544.64
2018-05-17T01:01:29.794Z,101549.62
2018-05-17T01:04:00.450Z,101544.06
2018-05-17T01:06:31.022Z,101543.58
2018-05-17T01:09:01.737Z,101539.20
2018-05-17T01:11:32.017Z,101551.02
2018-05-17T01:14:02.736Z,101546.72
2018-05-17T01:16:34.165Z,101554.17
2018-05-17T01:19:05.156Z,101551.81
2018-05-17T01:21:36.397Z,101560.70
2018-05-17T01:24:08.166Z,101563.52
2018-05-17T01:26:52.588Z,101562.91
2018-05-17T01:29:23.904Z,101569.66
2018-05-17T01:31:54.825Z,101572.40
2018-05-17T01:34:26.066Z,101566.20
2018-05-17T01:37:05.101Z,101561.53
2018-05-17T01:39:35.355Z,101576.24
2018-05-17T01:42:06.002Z,101576.65
2018-05-17T01:44:36.680Z,101571.16
2018-05-17T01:47:09.574Z,101580.19
2018-05-17T01:49:40.103Z,101495.11
2018-05-17T01:52:12.271Z,101581.68
2018-05-17T01:54:42.722Z,101579.84
2018-05-17T01:57:14.262Z,101585.29
2018-05-17T01:59:45.090Z,101583.16
2018-05-17T02:02:16.820Z,101580.84
2018-05-17T02:04:47.721Z,101586.94
2018-05-17T02:07:19.764Z,101584.92
2018-05-17T02:09:52.387Z,101588.54
2018-05-17T02:12:29.855Z,101583.38
2018-05-17T02:15:00.274Z,101594.71
2018-05-17T02:17:36.944Z,101594.25
2018-05-17T02:20:07.677Z,101599.66
2018-05-17T02:22:38.299Z,101600.91
2018-05-17T02:25:08.720Z,101599.00
2018-05-17T02:27:39.563Z,101597.81
2018-05-17T02:30:10.032Z,101600.03
2018-05-17T02:32:42.644Z,101595.53
2018-05-17T02:35:13.255Z,101593.10
2018-05-17T02:37:43.478Z,101595.44
2018-05-17T02:40:13.824Z,101600.39
2018-05-17T02:42:44.100Z,101590.46
2018-05-17T02:45:19.050Z,101595.23
2018-05-17T02:47:49.332Z,101588.91
2018-05-17T02:50:19.964Z,101592.24
2018-05-17T02:52:50.222Z,101591.48
2018-05-17T02:55:21.542Z,101591.97
2018-05-17T02:57:52.164Z,101599.41
2018-05-17T03:00:23.888Z,101577.72
2018-05-17T03:02:54.185Z,101608.56
2018-05-17T03:05:24.485Z,101611.78
2018-05-17T03:07:54.745Z,101611.10
2018-05-17T03:10:25.421Z,101611.83
2018-05-17T03:13:01.608Z,101614.69
2018-05-17T03:15:32.608Z,101619.66
2018-05-17T03:18:03.292Z,101614.66
2018-05-17T03:20:34.077Z,101612.92
2018-05-17T03:23:04.467Z,101610.92
2018-05-17T03:25:35.403Z,101619.66
2018-05-17T03:28:05.773Z,101621.91
2018-05-17T03:30:53.691Z,101624.52
2018-05-17T03:33:26.442Z,101620.52
2018-05-17T03:35:57.048Z,101615.03
2018-05-17T03:38:28.491Z,101619.34
2018-05-17T03:40:59.234Z,101618.48
2018-05-17T03:43:29.529Z,101618.19
2018-05-17T03:46:06.392Z,101627.81
2018-05-17T03:48:37.448Z,101619.38
2018-05-17T03:51:07.681Z,101618.93
2018-05-17T03:53:46.712Z,101617.50
2018-05-17T03:56:17.940Z,101614.92
2018-05-17T03:58:49.662Z,101622.17
2018-05-17T04:02:31.875Z,101629.73
2018-05-17T04:06:48.371Z,101623.77
2018-05-17T04:09:20.145Z,101628.18
2018-05-17T04:11:50.648Z,101633.64
2018-05-17T04:14:21.236Z,101625.77
2018-05-17T04:16:52.331Z,101633.75
2018-05-17T04:19:23.709Z,101636.87
2018-05-17T04:21:54.196Z,101642.77
2018-05-17T04:24:24.449Z,101641.38
2018-05-17T04:26:55.071Z,101637.13
2018-05-17T04:29:27.387Z,101633.82
2018-05-17T04:31:58.577Z,101634.88
2018-05-17T04:34:31.478Z,101629.50
2018-05-17T04:37:02.061Z,101632.70
2018-05-17T04:39:33.408Z,101643.65
2018-05-17T04:42:03.798Z,101637.80
2018-05-17T04:44:34.184Z,101642.81
2018-05-17T04:47:05.304Z,101648.61
2018-05-17T04:49:37.610Z,101645.45
2018-05-17T04:52:10.455Z,101654.45
2018-05-17T04:54:41.789Z,101653.97
2018-05-17T04:57:12.136Z,101639.19
2018-05-17T04:59:43.929Z,101648.67
2018-05-17T05:02:14.612Z,101645.73
2018-05-17T05:04:45.476Z,101648.28
2018-05-17T05:07:25.410Z,101657.16
2018-05-17T05:09:56.685Z,101641.56
2018-05-17T05:12:27.461Z,101646.91
2018-05-17T05:14:57.995Z,101645.48
2018-05-17T05:17:28.705Z,101652.72
2018-05-17T05:19:59.913Z,101640.06
2018-05-17T05:22:30.464Z,101647.14
2018-05-17T05:25:01.869Z,101646.54
2018-05-17T05:27:32.917Z,101642.11
2018-05-17T05:30:05.922Z,101643.71
2018-05-17T05:32:53.973Z,100577.69
2018-05-17T05:35:25.342Z,101652.39
2018-05-17T05:37:56.377Z,101654.28
2018-05-17T05:43:02.207Z,101649.99
2018-05-17T05:45:36.866Z,101655.30
2018-05-17T05:48:08.425Z,101656.73
2018-05-17T05:50:39.779Z,101657.19
2018-05-17T05:53:10.722Z,101672.06
2018-05-17T05:55:42.210Z,101668.74
2018-05-17T05:58:25.406Z,101672.58
2018-05-17T06:00:59.548Z,101673.97
2018-05-17T06:03:30.830Z,101680.73
2018-05-17T06:06:01.527Z,101674.52
2018-05-17T06:08:35.295Z,101679.61
2018-05-17T06:11:06.875Z,101679.06
2018-05-17T06:13:37.399Z,101678.96
2018-05-17T06:16:09.939Z,101680.41
2018-05-17T06:18:42.353Z,101672.05
2018-05-17T06:21:13.856Z,101677.75
2018-05-17T06:23:45.398Z,101677.33
2018-05-17T06:26:18.834Z,101680.23
2018-05-17T06:28:49.362Z,101685.55
2018-05-17T06:31:23.015Z,101689.48
2018-05-17T06:33:56.715Z,101665.23
2018-05-17T06:36:30.094Z,101686.24
2018-05-17T06:39:00.637Z,101690.09
2018-05-17T06:41:31.386Z,101694.06
2018-05-17T06:44:02.199Z,101687.22
2018-05-17T06:46:57.264Z,101689.11
2018-05-17T06:49:28.715Z,101691.18
2018-05-17T06:52:01.052Z,101653.34
2018-05-17T06:54:33.737Z,101687.42
2018-05-17T06:57:05.893Z,101677.08
2018-05-17T06:59:36.684Z,101697.56
2018-05-17T07:02:08.400Z,101676.17
2018-05-17T07:04:45.945Z,101688.47
2018-05-17T07:07:22.010Z,101690.58
2018-05-17T07:09:55.361Z,101679.99
2018-05-17T07:12:39.205Z,101685.02
2018-05-17T07:15:15.722Z,101682.62
2018-05-17T07:17:47.198Z,101692.95
2018-05-17T07:20:18.090Z,101692.77
2018-05-17T07:22:49.194Z,101691.31
2018-05-17T07:25:39.715Z,101695.16
2018-05-17T07:28:11.523Z,101700.62
2018-05-17T07:33:19.540Z,101704.28
2018-05-17T07:35:50.936Z,101693.69
2018-05-17T07:38:24.622Z,101688.57
2018-05-17T07:40:56.932Z,101694.03
2018-05-17T07:43:29.127Z,101696.69
2018-05-17T07:46:05.519Z,101696.64
2018-05-17T07:48:54.860Z,101698.46
2018-05-17T07:51:36.199Z,101704.19
2018-05-17T07:54:12.570Z,101693.95
2018-05-17T07:56:45.604Z,101704.31
2018-05-17T07:59:17.704Z,101690.98
2018-05-17T08:01:49.241Z,101690.17
2018-05-17T08:04:26.580Z,101703.03
2018-05-17T08:07:06.390Z,101712.13
2018-05-17T08:09:39.296Z,101709.62
2018-05-17T08:12:11.498Z,101696.41
2018-05-17T08:14:46.686Z,101703.12
2018-05-17T08:17:18.600Z,101703.57
2018-05-17T08:19:49.237Z,101708.30
2018-05-17T08:22:19.809Z,101707.66
2018-05-17T08:27:33.216Z,101715.33
2018-05-17T08:30:09.721Z,101717.69
2018-05-17T08:32:42.996Z,101725.98
2018-05-17T08:35:13.419Z,101711.94
2018-05-17T08:37:43.921Z,101723.74
2018-05-17T08:40:15.470Z,101729.03
2018-05-17T08:42:47.199Z,101726.53
2018-05-17T08:45:36.841Z,101723.25
2018-05-17T08:51:46.048Z,101722.92
2018-05-17T08:54:17.434Z,101733.90
2018-05-17T08:56:50.061Z,101729.92
2018-05-17T08:59:20.392Z,101730.34
2018-05-17T09:04:34.312Z,101726.37
2018-05-17T09:07:08.854Z,101725.30
2018-05-17T09:09:59.571Z,101722.16
2018-05-17T09:12:52.383Z,101724.83
2018-05-17T09:15:35.782Z,101713.23
2018-05-17T09:18:12.860Z,101725.66
2018-05-17T09:20:46.320Z,101717.08
2018-05-17T09:23:23.632Z,101706.98
2018-05-17T09:25:56.498Z,101723.84
2018-05-17T09:28:31.583Z,101722.47
2018-05-17T09:31:04.413Z,101725.63
2018-05-17T09:33:35.019Z,101719.54
2018-05-17T09:36:07.203Z,101721.30
2018-05-17T09:38:42.090Z,101722.22
2018-05-17T09:41:14.683Z,101703.67
2018-05-17T09:43:45.459Z,101727.31
2018-05-17T09:46:16.086Z,101724.64
2018-05-17T09:49:00.528Z,101721.95
2018-05-17T09:51:32.838Z,101725.72
2018-05-17T09:54:05.794Z,101728.06
2018-05-17T09:56:37.115Z,101727.72
2018-05-17T09:59:09.186Z,101726.28
2018-05-17T10:01:41.684Z,101722.23
2018-05-17T10:04:14.422Z,101721.06
2018-05-17T10:06:50.342Z,101720.28
2018-05-17T10:09:26.257Z,101720.45
2018-05-17T10:12:38.414Z,101715.02
2018-05-17T10:15:14.265Z,101723.08
2018-05-17T10:17:51.060Z,101711.73
2018-05-17T10:20:32.385Z,101727.66
2018-05-17T10:23:20.663Z,101704.95
2018-05-17T10:25:56.236Z,101716.62
2018-05-17T10:28:35.736Z,101726.56
2018-05-17T10:31:20.395Z,101713.39
2018-05-17T10:33:54.283Z,101708.77
2018-05-17T10:36:25.701Z,101711.63
2018-05-17T10:39:01.064Z,101701.66
2018-05-17T10:41:35.559Z,101701.20
2018-05-17T10:44:12.688Z,101694.48
2018-05-17T10:46:45.831Z,101689.09
2018-05-17T10:49:17.060Z,101711.61
2018-05-17T10:51:47.652Z,101713.14
2018-05-17T10:54:19.013Z,101702.52
2018-05-17T10:56:49.857Z,101693.88
2018-05-17T10:59:22.535Z,101700.57
2018-05-17T11:01:58.835Z,101698.13
2018-05-17T11:04:35.976Z,101704.44
2018-05-17T11:07:13.485Z,101704.33
2018-05-17T11:09:44.166Z,101699.09
2018-05-17T11:12:16.517Z,101690.63
2018-05-17T11:14:47.766Z,101666.20
2018-05-17T11:17:19.482Z,101686.53
2018-05-17T11:19:50.833Z,101696.67
2018-05-17T11:22:28.321Z,101696.33
2018-05-17T11:25:00.113Z,101686.31
2018-05-17T11:27:30.953Z,101684.19
2018-05-17T11:30:07.730Z,101668.77
2018-05-17T11:32:38.967Z,101687.25
2018-05-17T11:35:25.356Z,101688.67
2018-05-17T11:38:25.805Z,101682.26
2018-05-17T11:41:05.784Z,101676.69
2018-05-17T11:43:38.567Z,101679.47
2018-05-17T11:46:23.221Z,101675.85
2018-05-17T11:49:15.455Z,101668.37
2018-05-17T11:55:20.269Z,101669.34
2018-05-17T11:58:02.634Z,101679.33
2018-05-17T12:00:46.729Z,101673.93
2018-05-17T12:03:17.843Z,101671.78
2018-05-17T12:05:49.853Z,101674.10
2018-05-17T12:08:22.793Z,101673.66
2018-05-17T12:10:57.677Z,101667.80
2018-05-17T12:13:36.333Z,101665.36
2018-05-17T12:16:24.876Z,101656.50
2018-05-17T12:18:58.333Z,101671.81
2018-05-17T12:26:10.395Z,101661.73
2018-05-17T12:28:41.134Z,101665.14
2018-05-17T12:31:14.612Z,101655.75
2018-05-17T12:33:48.345Z,101650.73
2018-05-17T12:36:27.372Z,101654.16
2018-05-17T12:39:00.064Z,101640.89
2018-05-17T12:41:39.024Z,101642.77
2018-05-17T12:44:11.186Z,101651.83
2018-05-17T12:46:48.367Z,101645.45
2018-05-17T12:49:45.553Z,101659.64
2018-05-17T12:52:18.396Z,101650.77
2018-05-17T12:54:53.871Z,101647.47
2018-05-17T12:57:24.389Z,101649.43
2018-05-17T12:59:59.518Z,101646.56
2018-05-17T13:02:33.693Z,101640.26
2018-05-17T13:05:06.909Z,101633.32
2018-05-17T13:07:40.133Z,101635.44
2018-05-17T13:10:21.342Z,101637.85
2018-05-17T13:13:01.209Z,101626.56
2018-05-17T13:15:43.252Z,101639.61
2018-05-17T13:18:16.393Z,101633.14
2018-05-17T13:20:49.349Z,101633.70
2018-05-17T13:23:22.034Z,101635.07
2018-05-17T13:25:55.598Z,101635.03
2018-05-17T13:28:30.814Z,101619.61
2018-05-17T13:31:01.861Z,101609.71
2018-05-17T13:33:35.374Z,101619.26
2018-05-17T13:36:12.262Z,101610.88
2018-05-17T13:38:45.514Z,101613.95
2018-05-17T13:41:23.333Z,101618.20
2018-05-17T13:43:54.764Z,101608.06
2018-05-17T13:46:26.002Z,101626.30
2018-05-17T13:48:57.833Z,101620.22
2018-05-17T13:51:29.042Z,101618.57
2018-05-17T13:53:59.451Z,101619.47
2018-05-17T13:56:30.686Z,101606.67
2018-05-17T13:59:07.555Z,101616.02
2018-05-17T14:01:39.861Z,101621.62
2018-05-17T14:05:34.194Z,101608.48
2018-05-17T14:08:06.952Z,101605.55
2018-05-17T14:10:38.403Z,101613.63
2018-05-17T14:13:18.037Z,101602.63
2018-05-17T14:15:51.026Z,101601.37
2018-05-17T14:18:30.844Z,101593.47
2018-05-17T14:21:08.078Z,101584.83
2018-05-17T14:23:41.505Z,101604.28
2018-05-17T14:26:27.961Z,101591.87
2018-05-17T14:29:02.643Z,101596.02
2018-05-17T14:31:33.715Z,101597.70
2018-05-17T14:34:24.869Z,101593.98
2018-05-17T14:36:55.411Z,101593.91
2018-05-17T14:39:27.841Z,101588.57
2018-05-17T14:42:08.124Z,101590.70
2018-05-17T14:44:42.672Z,101586.98
2018-05-17T14:47:24.808Z,101596.48
2018-05-17T14:50:03.167Z,101583.32
2018-05-17T14:52:54.827Z,101581.10
2018-05-17T14:55:31.120Z,101587.66
2018-05-17T14:58:07.889Z,101575.84
2018-05-17T15:00:48.994Z,101566.41
2018-05-17T15:03:26.644Z,101577.61
2018-05-17T15:06:05.302Z,101577.06
2018-05-17T15:08:38.141Z,101583.20
2018-05-17T15:11:14.757Z,101573.64
2018-05-17T15:13:45.094Z,101578.79
2018-05-17T15:16:25.341Z,101583.28
2018-05-17T15:18:57.404Z,101576.28
2018-05-17T15:21:28.511Z,101587.28
2018-05-17T15:24:00.471Z,101580.50
2018-05-17T15:26:35.213Z,101580.41
2018-05-17T15:29:07.934Z,101582.00
2018-05-17T15:31:51.091Z,101580.57
2018-05-17T15:34:25.464Z,101588.23
2018-05-17T15:37:25.662Z,101582.57
2018-05-17T15:40:05.510Z,101582.56
2018-05-17T15:42:45.581Z,101579.85
2018-05-17T15:45:26.876Z,101575.08
2018-05-17T15:48:00.137Z,101578.73
2018-05-17T15:50:31.834Z,101579.33
2018-05-17T15:53:03.952Z,101584.06
2018-05-17T15:55:37.393Z,101582.67
2018-05-17T15:58:07.920Z,101575.78
2018-05-17T16:00:41.110Z,101586.42
2018-05-17T16:03:15.378Z,101576.66
2018-05-17T16:05:47.966Z,101562.52
2018-05-17T16:08:21.613Z,101578.81
2018-05-17T16:11:10.433Z,101573.73
2018-05-17T16:13:43.106Z,101582.26
2018-05-17T16:16:18.280Z,101577.52
2018-05-17T16:18:50.887Z,101562.19
2018-05-17T16:21:25.173Z,101579.47
2018-05-17T16:23:57.171Z,101574.52
2018-05-17T16:26:44.841Z,101576.81
2018-05-17T16:29:49.973Z,101572.05
2018-05-17T16:32:34.338Z,101576.47
2018-05-17T16:35:05.369Z,101582.28
2018-05-17T16:37:38.506Z,101571.14
2018-05-17T16:40:12.654Z,101578.27
2018-05-17T16:42:49.727Z,101579.11
2018-05-17T16:45:25.980Z,101579.53
2018-05-17T16:48:08.806Z,101571.33
2018-05-17T16:50:52.465Z,101583.65
2018-05-17T16:53:58.576Z,101588.42
2018-05-17T16:56:40.723Z,101589.49
2018-05-17T16:59:39.564Z,101584.92
2018-05-17T17:02:18.879Z,101586.05
2018-05-17T17:04:51.364Z,101574.05
2018-05-17T17:07:27.287Z,101585.34
2018-05-17T17:10:20.933Z,101584.61
2018-05-17T17:12:53.883Z,101588.41
2018-05-17T17:18:10.492Z,101583.47
2018-05-17T17:20:52.200Z,101583.67
2018-05-17T17:23:27.782Z,101597.59
2018-05-17T17:26:08.990Z,101594.73
2018-05-17T17:28:48.140Z,101593.27
2018-05-17T17:31:27.708Z,101593.33
2018-05-17T17:34:01.184Z,101593.13
2018-05-17T17:36:32.649Z,101590.57
2018-05-17T17:39:04.757Z,101599.53
2018-05-17T17:41:38.830Z,101597.62
2018-05-17T17:44:11.135Z,101603.02
2018-05-17T17:46:41.771Z,101603.11
2018-05-17T17:49:14.797Z,101599.48
2018-05-17T17:51:46.567Z,101593.20
2018-05-17T17:54:23.927Z,101595.38
2018-05-17T17:56:55.585Z,101603.13
2018-05-17T17:59:47.353Z,101601.80
2018-05-17T18:02:33.466Z,101600.11
2018-05-17T18:05:06.270Z,101600.73
2018-05-17T18:08:12.423Z,101604.78
2018-05-17T18:10:44.503Z,101603.08
2018-05-17T18:13:36.846Z,101600.31
2018-05-17T18:16:11.083Z,101607.24
2018-05-17T18:18:48.860Z,101609.28
2018-05-17T18:21:20.730Z,101609.97
2018-05-17T18:23:54.059Z,101619.64
2018-05-17T18:26:28.192Z,101623.19
2018-05-17T18:28:58.816Z,101624.45
2018-05-17T18:31:54.980Z,101612.95
2018-05-17T18:34:28.822Z,101628.53
2018-05-17T18:36:59.326Z,101622.98
2018-05-17T18:39:31.074Z,101621.25
2018-05-17T18:42:05.889Z,101628.20
2018-05-17T18:44:37.003Z,101627.89
2018-05-17T18:47:08.185Z,101630.70
2018-05-17T18:49:38.735Z,101639.08
2018-05-17T18:52:09.298Z,101638.14
2018-05-17T18:54:39.857Z,101639.15
2018-05-17T18:57:10.873Z,101642.06
2018-05-17T18:59:43.145Z,101642.86
2018-05-17T19:02:20.753Z,101645.78
2018-05-17T19:04:51.913Z,101639.44
2018-05-17T19:07:24.008Z,101648.00
2018-05-17T19:09:57.871Z,101652.67
2018-05-17T19:12:29.962Z,101662.16
2018-05-17T19:15:00.515Z,101665.43
2018-05-17T19:17:33.399Z,101667.19
2018-05-17T19:20:09.938Z,101673.95
2018-05-17T19:22:42.058Z,101597.81
2018-05-17T19:25:12.970Z,101673.95
2018-05-17T19:27:46.111Z,101681.02
2018-05-17T19:30:32.478Z,101688.80
2018-05-17T19:33:04.596Z,101689.57
2018-05-17T19:35:35.797Z,101694.98
2018-05-17T19:38:06.391Z,101691.98
2018-05-17T19:40:39.712Z,101697.50
2018-05-17T19:43:13.752Z,101705.45
2018-05-17T19:45:45.231Z,101714.48
2018-05-17T19:48:15.853Z,101716.73
2018-05-17T19:50:46.694Z,101713.50
2018-05-17T19:53:18.960Z,101716.76
2018-05-17T19:55:49.669Z,101715.37
2018-05-17T19:58:20.818Z,101721.10
2018-05-17T20:00:51.307Z,101721.91
2018-05-17T20:03:22.698Z,101716.11
2018-05-17T20:06:04.894Z,101715.97
2018-05-17T20:08:35.851Z,101718.91
2018-05-17T20:11:07.384Z,101729.33
2018-05-17T20:13:38.844Z,101729.65
2018-05-17T20:16:09.918Z,101727.64
2018-05-17T20:18:41.613Z,101731.35
2018-05-17T20:21:12.427Z,101743.93
2018-05-17T20:23:43.211Z,101735.13
2018-05-17T20:26:13.578Z,101735.03
2018-05-17T20:28:45.606Z,101743.41
2018-05-17T20:31:17.001Z,101729.28
2018-05-17T20:33:47.710Z,101731.87
2018-05-17T20:36:34.017Z,101741.66
2018-05-17T20:39:07.669Z,101751.27
2018-05-17T20:41:38.532Z,101742.59
2018-05-17T20:44:09.621Z,101748.80
2018-05-17T20:46:42.869Z,101743.23
2018-05-17T20:49:14.402Z,101745.77
2018-05-17T20:51:45.519Z,101749.09
2018-05-17T20:54:15.979Z,101752.11
2018-05-17T20:56:46.903Z,101748.39
2018-05-17T20:59:18.316Z,101752.00
2018-05-17T21:01:49.064Z,101753.25
2018-05-17T21:04:22.575Z,101751.91
2018-05-17T21:06:53.262Z,101750.57
2018-05-17T21:09:25.708Z,101746.97
2018-05-17T21:12:00.323Z,101757.12
2018-05-17T21:14:32.283Z,101759.54
2018-05-17T21:17:02.953Z,101762.27
2018-05-17T21:19:36.711Z,101759.45
2018-05-17T21:22:07.578Z,101752.73
2018-05-17T21:24:38.833Z,101758.38
2018-05-17T21:27:12.558Z,101763.80
2018-05-17T21:29:44.104Z,101758.15
2018-05-17T21:32:21.743Z,101763.59
2018-05-17T21:34:58.831Z,101762.14
2018-05-17T21:37:32.505Z,101765.96
2018-05-17T21:40:03.393Z,101769.75
2018-05-17T21:42:34.488Z,101760.11
2018-05-17T21:45:19.072Z,101770.32
2018-05-17T21:47:50.259Z,101762.81
2018-05-17T21:50:22.760Z,101769.47
2018-05-17T21:52:53.442Z,101763.02
2018-05-17T21:55:26.228Z,101767.16
2018-05-17T21:57:59.491Z,101771.97
2018-05-17T22:00:36.148Z,101772.41
2018-05-17T22:03:08.055Z,101769.29
2018-05-17T22:05:39.689Z,101775.02
2018-05-17T22:08:14.634Z,101768.87
2018-05-17T22:10:47.023Z,101773.95
2018-05-17T22:13:18.485Z,101779.03
2018-05-17T22:15:54.192Z,101780.33
2018-05-17T22:18:26.958Z,101775.27
2018-05-17T22:20:58.013Z,101775.89
2018-05-17T22:23:28.863Z,101768.03
2018-05-17T22:25:59.764Z,101768.61
2018-05-17T22:28:30.368Z,101776.06
2018-05-17T22:31:01.521Z,101763.08
2018-05-17T22:33:32.491Z,101761.80
2018-05-17T22:36:08.826Z,101768.59
2018-05-17T22:38:39.086Z,101776.34
2018-05-17T22:41:09.599Z,101775.17
2018-05-17T22:43:50.830Z,101764.86
2018-05-17T22:46:22.309Z,101743.58
2018-05-17T22:48:56.379Z,101760.09
2018-05-17T22:51:32.624Z,101763.64
2018-05-17T22:54:04.465Z,101759.33
2018-05-17T22:56:48.727Z,101762.39
2018-05-17T22:59:19.361Z,101762.77
2018-05-17T23:02:04.891Z,101760.33
2018-05-17T23:04:36.486Z,101755.22
2018-05-17T23:07:07.306Z,101755.73
2018-05-17T23:09:41.302Z,101762.67
2018-05-17T23:12:12.551Z,101766.47
2018-05-17T23:14:55.211Z,101755.94
2018-05-17T23:17:27.743Z,101755.04
2018-05-17T23:19:58.512Z,101746.34
2018-05-17T23:22:37.296Z,101753.31
2018-05-17T23:25:12.285Z,101747.98
2018-05-17T23:27:44.126Z,101745.63
2018-05-17T23:30:17.223Z,101747.09
2018-05-17T23:32:47.625Z,101748.73
2018-05-17T23:35:18.972Z,101749.96
2018-05-17T23:37:51.015Z,101745.16
2018-05-17T23:40:30.995Z,101751.64
2018-05-17T23:43:05.010Z,101742.23
2018-05-17T23:45:36.115Z,101740.02
2018-05-17T23:48:08.069Z,101736.41
2018-05-17T23:50:43.533Z,101743.64
2018-05-17T23:53:14.526Z,101743.31
2018-05-17T23:55:45.781Z,101742.23
2018-05-17T23:58:16.379Z,101741.52
